Time;durP1;ratioP1;P1;durP2;ratioP2;P2;SDS_P1;SDS_P2;PMS_P1;PMS_P2;Temp;Humidity;BMP_temperature;BMP_pressure;BME280_temperature;BME280_humidity;BME280_pressure;Samples;Min_cycle;Max_cycle;Signal;HPM_P1;HPM_P2
2021/12/24 00:02:16;;;;;;;285.65;131.93;;;3.50;99.90;;;;;;5033451;28;20504;-62
2021/12/24 00:04:42;;;;;;;276.10;133.32;;;3.50;99.90;;;;;;5033474;28;20040;-61
2021/12/24 00:07:08;;;;;;;370.25;170.02;;;3.50;99.90;;;;;;5033512;28;20026;-56
2021/12/24 00:09:36;;;;;;;310.45;137.50;;;3.50;99.90;;;;;;5033390;28;20031;-62
2021/12/24 00:12:05;;;;;;;341.05;154.32;;;3.40;99.90;;;;;;5033656;28;20113;-66
2021/12/24 00:14:32;;;;;;;262.80;122.38;;;3.50;99.90;;;;;;5033453;28;20510;-63
2021/12/24 00:17:02;;;;;;;250.88;118.45;;;3.50;99.90;;;;;;5033438;28;20079;-60
2021/12/24 00:35:36;;;;;;;;;;;3.60;99.90;;;;;;5033580;28;20033;-60
2021/12/24 00:38:05;;;;;;;173.00;83.28;;;3.60;99.90;;;;;;5033177;28;19905;-60
2021/12/24 00:40:35;;;;;;;310.90;136.13;;;3.60;99.90;;;;;;5033481;28;20415;-59
2021/12/24 00:43:01;;;;;;;225.82;105.38;;;3.60;99.90;;;;;;5033197;28;20044;-60
2021/12/24 00:45:31;;;;;;;313.83;143.45;;;3.60;99.90;;;;;;5033100;28;20506;-58
2021/12/24 00:47:58;;;;;;;226.43;105.22;;;3.70;99.90;;;;;;5033374;28;20029;-64
2021/12/24 00:50:27;;;;;;;233.60;110.07;;;3.70;99.90;;;;;;5032984;28;20116;-61
2021/12/24 00:53:04;;;;;;;188.27;90.93;;;3.80;99.90;;;;;;5033210;28;20076;-61
2021/12/24 00:55:32;;;;;;;196.00;92.40;;;3.80;99.90;;;;;;5033363;28;20053;-65
2021/12/24 00:58:04;;;;;;;207.35;97.45;;;3.80;99.90;;;;;;5033024;28;20428;-63
2021/12/24 01:00:34;;;;;;;414.02;193.43;;;3.80;99.90;;;;;;5032922;28;20407;-61
2021/12/24 01:03:01;;;;;;;439.05;213.18;;;3.70;99.90;;;;;;5031490;28;20072;-59
2021/12/24 01:05:28;;;;;;;349.90;163.88;;;3.60;99.90;;;;;;5032818;28;20022;-62
2021/12/24 01:07:54;;;;;;;314.85;149.90;;;3.50;99.90;;;;;;5032903;28;20029;-62
2021/12/24 01:10:26;;;;;;;374.63;172.77;;;3.50;99.90;;;;;;5034684;28;20029;-59
2021/12/24 01:12:52;;;;;;;385.35;185.07;;;3.60;99.90;;;;;;5036825;28;20071;-58
2021/12/24 01:15:19;;;;;;;315.13;145.52;;;3.60;99.90;;;;;;5036827;28;20022;-66
2021/12/24 01:17:54;;;;;;;303.52;140.15;;;3.60;99.90;;;;;;5036606;28;20540;-60
2021/12/24 01:20:27;;;;;;;407.88;199.95;;;3.60;99.90;;;;;;5037198;28;20376;-63
2021/12/24 01:25:35;;;;;;;285.27;132.85;;;3.40;99.90;;;;;;5036626;28;20037;-58
2021/12/24 01:28:34;;;;;;;241.60;117.13;;;3.50;99.90;;;;;;5036572;28;20021;-57
2021/12/24 01:39:40;;;;;;;178.52;86.88;;;3.50;99.90;;;;;;5036412;28;20083;-62
2021/12/24 01:44:52;;;;;;;181.98;85.97;;;3.40;99.90;;;;;;5036297;28;20033;-59
2021/12/24 01:47:18;;;;;;;152.07;71.25;;;3.40;99.90;;;;;;5035998;28;20017;-60
2021/12/24 01:49:44;;;;;;;185.48;86.95;;;3.40;99.90;;;;;;5036437;28;20026;-59
2021/12/24 01:52:09;;;;;;;173.10;84.20;;;3.40;99.90;;;;;;5036192;28;20028;-58
2021/12/24 01:54:35;;;;;;;151.45;70.53;;;3.40;99.90;;;;;;5036055;28;20018;-61
2021/12/24 01:57:02;;;;;;;135.27;64.65;;;3.30;99.90;;;;;;5035992;28;20022;-63
2021/12/24 01:59:28;;;;;;;125.60;59.88;;;3.40;99.90;;;;;;5035890;28;20467;-58
2021/12/24 02:01:54;;;;;;;149.15;69.50;;;3.40;99.90;;;;;;5035637;28;20060;-65
2021/12/24 02:04:20;;;;;;;144.43;66.40;;;3.40;99.90;;;;;;5035685;28;20030;-64
2021/12/24 02:06:47;;;;;;;140.15;67.97;;;3.40;99.90;;;;;;5035931;28;20101;-65
2021/12/24 02:09:13;;;;;;;164.93;81.18;;;3.40;99.90;;;;;;5035844;28;20045;-60
2021/12/24 02:11:39;;;;;;;140.30;66.90;;;3.40;99.90;;;;;;5035643;28;20028;-62
2021/12/24 02:14:11;;;;;;;132.48;64.45;;;3.40;99.90;;;;;;5035684;28;20460;-59
2021/12/24 02:17:18;;;;;;;145.02;68.32;;;3.40;99.90;;;;;;5035466;28;20021;-62
2021/12/24 07:55:45;;;;;;;247.03;117.30;;;2.30;99.90;;;;;;5111199;27;20366;-56
2021/12/24 07:58:14;;;;;;;372.80;170.17;;;3.20;99.90;;;;;;5111091;28;20108;-60
2021/12/24 08:00:41;;;;;;;551.25;276.08;;;4.40;99.90;;;;;;5110763;28;20410;-58
2021/12/24 08:03:07;;;;;;;629.47;312.02;;;5.00;99.90;;;;;;5109870;28;20027;-57
2021/12/24 08:05:35;;;;;;;593.75;309.10;;;5.70;99.90;;;;;;5110223;28;20102;-59
2021/12/24 08:08:02;;;;;;;684.78;363.52;;;6.90;99.90;;;;;;5107364;28;20647;-58
2021/12/24 08:10:30;;;;;;;603.05;322.80;;;7.50;99.90;;;;;;5097478;28;20488;-60
2021/12/24 08:12:55;;;;;;;546.42;290.52;;;8.20;99.90;;;;;;5110228;28;20027;-58
2021/12/24 08:15:22;;;;;;;574.85;315.08;;;9.20;99.90;;;;;;5110274;28;20046;-59
2021/12/24 08:17:48;;;;;;;656.75;367.73;;;9.70;96.70;;;;;;5109206;28;20154;-57
2021/12/24 08:20:15;;;;;;;529.53;299.17;;;9.40;95.60;;;;;;5109661;28;20574;-59
2021/12/24 08:22:41;;;;;;;545.70;311.65;;;8.90;98.90;;;;;;5092216;28;20405;-62
2021/12/24 08:25:17;;;;;;;510.20;288.15;;;9.20;99.90;;;;;;5105019;28;20016;-60
2021/12/24 08:27:43;;;;;;;499.35;286.45;;;9.90;98.20;;;;;;5105627;28;20485;-60
2021/12/24 08:30:09;;;;;;;472.58;270.33;;;9.40;97.70;;;;;;5108250;28;20386;-60
2021/12/24 08:32:40;;;;;;;447.65;254.85;;;9.40;99.90;;;;;;5107024;28;20024;-60
2021/12/24 08:35:09;;;;;;;433.70;246.55;;;9.70;99.30;;;;;;5097930;28;20035;-54
2021/12/24 08:37:35;;;;;;;500.27;285.48;;;9.40;98.70;;;;;;5098956;28;20016;-51
2021/12/24 08:40:01;;;;;;;510.58;295.98;;;9.00;99.90;;;;;;5096091;28;20038;-57
2021/12/24 08:42:27;;;;;;;502.88;291.92;;;8.70;99.90;;;;;;5100646;28;20024;-61
2021/12/24 08:44:53;;;;;;;510.58;295.27;;;9.20;99.90;;;;;;5109427;28;20031;-59
2021/12/24 08:47:19;;;;;;;471.98;268.17;;;9.50;99.90;;;;;;5109427;28;20042;-63
2021/12/24 08:49:44;;;;;;;482.55;272.70;;;9.20;99.90;;;;;;5108627;28;20024;-63
2021/12/24 08:52:10;;;;;;;468.13;275.20;;;8.80;99.90;;;;;;5109875;28;20418;-58
2021/12/24 08:54:36;;;;;;;618.65;363.38;;;9.30;99.90;;;;;;5106296;28;20108;-58
2021/12/24 08:57:03;;;;;;;607.63;360.17;;;9.80;99.90;;;;;;5107732;28;20016;-56
2021/12/24 08:59:28;;;;;;;691.72;416.25;;;10.00;99.70;;;;;;5109532;28;20127;-57
2021/12/24 09:01:54;;;;;;;617.92;380.95;;;9.80;99.90;;;;;;5108695;28;20521;-57
2021/12/24 09:04:21;;;;;;;637.17;386.67;;;9.70;99.90;;;;;;5107860;28;20081;-55
2021/12/24 09:06:47;;;;;;;551.30;346.55;;;9.80;99.90;;;;;;5092639;28;20028;-58
2021/12/24 09:09:12;;;;;;;602.17;366.88;;;9.80;99.90;;;;;;5094438;28;20028;-58
2021/12/24 09:11:41;;;;;;;603.70;382.45;;;9.90;99.90;;;;;;5093347;28;20024;-64
2021/12/24 09:14:08;;;;;;;562.58;360.65;;;9.80;99.90;;;;;;5092940;28;20043;-57
2021/12/24 09:16:35;;;;;;;531.08;339.90;;;10.00;99.90;;;;;;5093949;28;20473;-57
2021/12/24 09:19:06;;;;;;;544.88;354.60;;;10.30;99.90;;;;;;5094774;28;20073;-57
2021/12/24 09:21:33;;;;;;;543.88;365.45;;;10.80;99.90;;;;;;5075892;28;20041;-54
2021/12/24 09:23:59;;;;;;;530.58;355.52;;;11.20;99.60;;;;;;5073331;28;20033;-57
2021/12/24 09:26:32;;;;;;;499.25;328.88;;;11.60;97.70;;;;;;5072806;28;20040;-59
2021/12/24 09:28:59;;;;;;;443.27;285.83;;;12.00;98.00;;;;;;5072053;28;20103;-57
2021/12/24 09:31:25;;;;;;;410.33;264.08;;;12.50;95.80;;;;;;5072902;28;20025;-57
2021/12/24 09:33:52;;;;;;;384.35;237.73;;;13.10;93.20;;;;;;5072482;28;20037;-60
2021/12/24 09:36:25;;;;;;;329.75;205.88;;;13.70;92.40;;;;;;5071747;28;20111;-60
2021/12/24 09:38:53;;;;;;;272.83;167.93;;;14.20;83.80;;;;;;5079082;28;20067;-61
2021/12/24 09:41:20;;;;;;;225.45;139.05;;;14.70;76.90;;;;;;5087594;28;20035;-62
2021/12/24 09:43:45;;;;;;;178.65;110.47;;;15.00;76.00;;;;;;5093818;28;20039;-55
2021/12/24 09:46:14;;;;;;;166.10;104.93;;;15.40;72.00;;;;;;5080903;28;20402;-61
2021/12/24 09:48:40;;;;;;;134.52;85.55;;;15.80;71.30;;;;;;5073264;28;20145;-62
2021/12/24 09:51:07;;;;;;;117.47;75.63;;;16.20;68.70;;;;;;5089651;28;20030;-60
2021/12/24 09:53:36;;;;;;;99.75;64.10;;;16.60;65.60;;;;;;5085130;28;20035;-57
2021/12/24 09:56:05;;;;;;;84.80;54.33;;;16.90;64.00;;;;;;5075086;28;20033;-58
2021/12/24 09:58:31;;;;;;;79.78;48.47;;;17.10;62.50;;;;;;5075690;28;20054;-58
2021/12/24 10:00:58;;;;;;;61.88;39.78;;;17.40;60.60;;;;;;5090958;28;20109;-56
2021/12/24 10:03:39;;;;;;;60.70;39.03;;;17.60;58.30;;;;;;5091682;28;20028;-54
2021/12/24 10:06:05;;;;;;;48.40;30.23;;;17.70;58.00;;;;;;5092288;28;20028;-59
2021/12/24 10:08:32;;;;;;;40.97;26.50;;;18.00;56.70;;;;;;5092969;28;20024;-59
2021/12/24 10:11:17;;;;;;;33.45;23.30;;;18.20;56.30;;;;;;5089093;28;20020;-58
2021/12/24 10:13:45;;;;;;;30.80;20.15;;;18.30;55.00;;;;;;5090282;28;20051;-54
2021/12/24 10:16:17;;;;;;;28.42;20.10;;;18.40;54.40;;;;;;5090121;28;20081;-60
2021/12/24 10:18:54;;;;;;;29.75;18.45;;;18.40;53.30;;;;;;5091375;28;20369;-57
2021/12/24 10:21:24;;;;;;;31.65;20.90;;;18.40;52.60;;;;;;5089672;28;20383;-57
2021/12/24 10:23:57;;;;;;;27.30;17.42;;;18.40;53.00;;;;;;5090693;28;20040;-51
2021/12/24 10:26:34;;;;;;;22.50;14.50;;;18.30;52.70;;;;;;5092390;28;20055;-61
2021/12/24 10:29:10;;;;;;;18.02;12.13;;;18.40;53.20;;;;;;5093263;28;20023;-61
2021/12/24 10:31:38;;;;;;;17.50;11.55;;;18.50;51.90;;;;;;5081765;28;20061;-56
2021/12/24 10:34:18;;;;;;;13.75;8.77;;;18.60;51.50;;;;;;5082236;28;20024;-62
2021/12/24 10:36:55;;;;;;;9.10;5.20;;;18.60;52.20;;;;;;5073442;28;20146;-59
2021/12/24 10:39:42;;;;;;;6.50;4.45;;;18.70;52.10;;;;;;5072081;28;20028;-63
2021/12/24 10:42:20;;;;;;;9.35;6.40;;;18.60;51.20;;;;;;5085102;28;20037;-65
2021/12/24 10:44:52;;;;;;;9.73;6.05;;;18.70;51.50;;;;;;5071695;28;20048;-63
2021/12/24 10:47:22;;;;;;;8.75;5.70;;;18.60;52.50;;;;;;5070938;28;20386;-61
2021/12/24 10:53:15;;;;;;;7.43;3.40;;;18.70;50.40;;;;;;5083214;28;20028;-63
2021/12/24 10:55:36;;;;;;;5.32;2.83;;;18.50;49.80;;;;;;5088453;28;20087;-65
2021/12/24 10:58:04;;;;;;;4.70;3.47;;;18.60;50.40;;;;;;5088748;28;20044;-63
2021/12/24 11:00:35;;;;;;;4.43;2.97;;;18.30;50.90;;;;;;5088467;28;20021;-63
2021/12/24 11:03:20;;;;;;;5.45;3.60;;;18.30;50.50;;;;;;5088281;28;20164;-62
2021/12/24 11:05:51;;;;;;;10.98;6.35;;;18.50;50.10;;;;;;5089769;28;20026;-63
2021/12/24 11:08:20;;;;;;;6.22;4.55;;;18.30;50.70;;;;;;5068736;28;20036;-60
2021/12/24 11:10:54;;;;;;;17.23;3.25;;;18.30;50.60;;;;;;5069134;28;20078;-63
2021/12/24 11:13:32;;;;;;;6.07;3.28;;;18.50;51.10;;;;;;5070308;28;20056;-61
2021/12/24 11:16:02;;;;;;;9.15;5.60;;;18.50;50.60;;;;;;5070434;28;20462;-63
2021/12/24 11:18:35;;;;;;;5.47;4.18;;;18.30;50.00;;;;;;5070837;28;20025;-60
2021/12/24 11:21:08;;;;;;;8.50;5.60;;;18.20;50.00;;;;;;5070852;28;20043;-66
2021/12/24 11:23:36;;;;;;;9.10;6.35;;;18.40;50.50;;;;;;5071048;28;20100;-63
2021/12/24 11:26:10;;;;;;;10.30;6.72;;;18.50;50.50;;;;;;5070551;28;20028;-63
2021/12/24 11:28:36;;;;;;;10.38;5.80;;;18.20;50.40;;;;;;5075210;28;20474;-61
2021/12/24 11:31:16;;;;;;;7.90;4.80;;;18.00;51.20;;;;;;5083105;28;20158;-60
2021/12/24 11:33:44;;;;;;;8.27;4.25;;;18.20;51.00;;;;;;5090817;28;20072;-62
2021/12/24 11:36:15;;;;;;;8.30;3.42;;;18.30;50.40;;;;;;5091123;28;20042;-57
2021/12/24 11:38:43;;;;;;;5.05;2.80;;;18.50;50.30;;;;;;5089589;28;20036;-57
2021/12/24 11:41:12;;;;;;;6.30;3.95;;;18.80;49.70;;;;;;5093034;28;20019;-59
2021/12/24 11:43:48;;;;;;;6.80;3.08;;;19.00;49.70;;;;;;5093296;28;20049;-57
2021/12/24 11:46:16;;;;;;;6.35;2.92;;;19.00;49.40;;;;;;5093323;28;20021;-55
2021/12/24 11:48:43;;;;;;;7.07;4.85;;;19.10;49.40;;;;;;5093566;28;20055;-58
2021/12/24 11:51:14;;;;;;;7.70;4.00;;;19.10;49.90;;;;;;5093219;28;20035;-58
2021/12/24 11:53:41;;;;;;;5.22;3.45;;;19.30;49.60;;;;;;5092327;28;20044;-57
2021/12/24 11:56:10;;;;;;;6.22;2.80;;;19.50;48.60;;;;;;5089545;28;20033;-59
2021/12/24 11:58:47;;;;;;;4.15;2.65;;;19.40;48.40;;;;;;5077608;28;20028;-58
2021/12/24 12:01:16;;;;;;;4.63;3.13;;;18.80;48.70;;;;;;5092759;28;20102;-61
2021/12/24 12:03:49;;;;;;;5.68;2.83;;;18.90;50.10;;;;;;5091638;28;20056;-58
2021/12/24 12:06:35;;;;;;;4.82;2.88;;;19.30;49.10;;;;;;5092455;28;20028;-57
2021/12/24 12:09:06;;;;;;;3.30;2.00;;;19.40;48.70;;;;;;5092503;28;20180;-60
2021/12/24 12:11:38;;;;;;;3.75;2.53;;;19.50;48.00;;;;;;5092198;28;20483;-60
2021/12/24 12:14:21;;;;;;;9.13;7.05;;;19.40;48.70;;;;;;5093132;28;20024;-59
2021/12/24 12:16:51;;;;;;;7.68;4.05;;;19.10;48.90;;;;;;5092333;28;20465;-64
2021/12/24 12:25:09;;;;;;;6.38;4.07;;;18.60;49.90;;;;;;5082980;28;20144;-61
2021/12/24 12:27:35;;;;;;;8.05;4.93;;;18.40;51.20;;;;;;5069257;28;20037;-60
2021/12/24 12:30:27;;;;;;;8.73;4.97;;;18.30;50.50;;;;;;5068607;28;20124;-59
2021/12/24 12:33:05;;;;;;;22.65;12.75;;;18.10;50.80;;;;;;5070436;28;20351;-59
2021/12/24 12:35:56;;;;;;;15.73;9.52;;;18.00;51.00;;;;;;5071030;28;20088;-55
2021/12/24 12:38:23;;;;;;;7.80;5.57;;;18.10;50.70;;;;;;5068189;28;20554;-58
2021/12/24 12:40:49;;;;;;;9.27;6.80;;;18.10;50.90;;;;;;5071084;28;20470;-58
2021/12/24 12:43:15;;;;;;;13.70;9.80;;;18.10;50.70;;;;;;5074792;28;20074;-58
2021/12/24 12:45:41;;;;;;;15.43;10.52;;;18.10;50.90;;;;;;5075021;28;20029;-58
2021/12/24 12:48:10;;;;;;;23.80;14.27;;;17.90;51.50;;;;;;5075674;28;20029;-59
2021/12/24 12:50:40;;;;;;;17.40;10.60;;;17.80;51.30;;;;;;5075369;28;20150;-59
2021/12/24 12:53:27;;;;;;;20.20;12.63;;;17.70;51.50;;;;;;5075945;28;20073;-59
2021/12/24 12:56:15;;;;;;;20.90;13.05;;;17.40;52.40;;;;;;5075768;28;20036;-59
2021/12/24 12:59:06;;;;;;;24.85;12.80;;;17.60;52.20;;;;;;5075712;28;20025;-60
2021/12/24 13:01:33;;;;;;;35.08;17.98;;;17.80;51.70;;;;;;5074879;28;20446;-61
2021/12/24 13:04:03;;;;;;;28.20;16.50;;;18.10;51.60;;;;;;5073956;28;20032;-59
2021/12/24 13:06:41;;;;;;;20.40;11.07;;;18.30;50.90;;;;;;5073352;28;20025;-61
2021/12/24 13:09:12;;;;;;;15.93;10.70;;;18.50;51.40;;;;;;5072218;28;20390;-63
2021/12/24 13:11:46;;;;;;;16.25;9.30;;;18.60;50.10;;;;;;5080767;28;20024;-61
2021/12/24 13:14:14;;;;;;;15.45;9.07;;;18.30;50.50;;;;;;5084955;28;20059;-61
2021/12/24 13:17:04;;;;;;;22.08;12.75;;;18.40;50.50;;;;;;5093227;28;20114;-61
2021/12/24 13:20:18;;;;;;;24.98;16.05;;;18.50;50.30;;;;;;5092666;28;20119;-60
2021/12/24 13:22:36;;;;;;;37.25;22.33;;;18.50;50.60;;;;;;5094429;28;20082;-61
2021/12/24 13:25:11;;;;;;;26.27;16.08;;;18.40;50.30;;;;;;5092726;28;20103;-61
2021/12/24 13:27:41;;;;;;;21.98;12.93;;;18.20;50.70;;;;;;5093176;28;20489;-59
2021/12/24 13:30:07;;;;;;;40.03;22.27;;;18.10;50.50;;;;;;5093383;28;20070;-61
2021/12/24 13:32:45;;;;;;;20.17;12.23;;;17.80;51.60;;;;;;5092136;28;20119;-61
2021/12/24 13:35:11;;;;;;;19.70;11.18;;;17.70;51.40;;;;;;5091314;28;20021;-61
2021/12/24 13:37:37;;;;;;;26.33;15.93;;;17.70;51.60;;;;;;5092165;28;20078;-61
2021/12/24 13:40:08;;;;;;;35.92;23.25;;;17.70;52.10;;;;;;5092815;28;20028;-60
2021/12/24 13:42:49;;;;;;;48.78;28.30;;;17.70;52.90;;;;;;5093464;28;20020;-60
2021/12/24 13:45:15;;;;;;;37.63;23.65;;;17.60;52.60;;;;;;5093624;28;20028;-60
2021/12/24 13:47:54;;;;;;;38.35;24.75;;;17.40;52.50;;;;;;5095004;28;20033;-60
2021/12/24 13:55:38;;;;;;;40.85;23.92;;;17.10;53.70;;;;;;5093223;28;20105;-60
2021/12/24 13:58:08;;;;;;;38.05;24.55;;;17.00;53.70;;;;;;5093870;28;20020;-60
2021/12/24 14:00:36;;;;;;;29.88;19.25;;;17.00;53.60;;;;;;5094192;28;20020;-60
2021/12/24 14:03:08;;;;;;;26.17;16.27;;;17.00;53.60;;;;;;5094195;28;20077;-60
2021/12/24 14:05:49;;;;;;;21.85;12.60;;;17.00;54.10;;;;;;5094689;28;20031;-60
2021/12/24 14:08:18;;;;;;;36.28;22.40;;;16.90;53.70;;;;;;5094861;28;20381;-61
2021/12/24 14:10:45;;;;;;;31.77;19.65;;;16.90;53.90;;;;;;5095377;28;20095;-61
2021/12/24 14:13:24;;;;;;;41.97;26.75;;;16.90;54.10;;;;;;5094948;28;20500;-61
2021/12/24 14:24:12;;;;;;;53.17;30.85;;;16.40;55.50;;;;;;5095224;28;20027;-60
2021/12/24 14:26:57;;;;;;;33.65;20.10;;;16.50;55.50;;;;;;5095108;28;20488;-60
2021/12/24 14:29:27;;;;;;;45.88;26.77;;;16.50;55.40;;;;;;5094541;28;20031;-60
2021/12/24 14:31:54;;;;;;;47.90;30.35;;;16.50;55.20;;;;;;5094942;28;20031;-62
2021/12/24 14:34:50;;;;;;;36.63;23.10;;;16.40;55.40;;;;;;5094481;28;20028;-61
2021/12/24 14:37:22;;;;;;;39.08;24.42;;;16.40;55.50;;;;;;5093903;28;20019;-61
2021/12/24 14:39:52;;;;;;;34.58;22.08;;;16.50;55.40;;;;;;5094628;28;20020;-60
2021/12/24 14:42:24;;;;;;;40.78;27.23;;;16.30;55.50;;;;;;5094645;28;20047;-61
2021/12/24 14:44:53;;;;;;;34.13;21.45;;;16.20;56.00;;;;;;5094821;28;20024;-61
2021/12/24 14:47:26;;;;;;;34.88;22.10;;;16.10;56.40;;;;;;5093886;28;20020;-60
2021/12/24 14:50:00;;;;;;;34.47;22.00;;;16.20;56.30;;;;;;5094196;28;20171;-62
2021/12/24 14:52:27;;;;;;;30.08;18.88;;;16.20;56.40;;;;;;5094297;28;20568;-60
2021/12/24 14:55:19;;;;;;;38.15;24.90;;;16.30;55.90;;;;;;5093953;28;20052;-60
2021/12/24 14:57:54;;;;;;;45.08;28.80;;;16.20;56.30;;;;;;5094427;28;20378;-61
2021/12/24 15:00:31;;;;;;;45.85;28.70;;;16.20;56.20;;;;;;5094101;28;20044;-60
2021/12/24 15:03:01;;;;;;;41.25;26.23;;;16.10;56.60;;;;;;5093653;28;20020;-60
2021/12/24 15:05:32;;;;;;;31.40;21.33;;;16.00;57.10;;;;;;5093810;28;20028;-59
2021/12/24 15:07:59;;;;;;;25.33;14.85;;;15.70;57.60;;;;;;5094165;28;20377;-61
2021/12/24 15:10:26;;;;;;;29.38;19.20;;;15.50;58.00;;;;;;5093924;28;20044;-60
2021/12/24 15:13:08;;;;;;;27.92;18.98;;;15.50;58.30;;;;;;5093982;28;20112;-60
2021/12/24 15:15:34;;;;;;;31.30;20.77;;;15.20;59.10;;;;;;5094083;28;20039;-60
2021/12/24 15:18:00;;;;;;;26.10;16.33;;;15.20;59.20;;;;;;5093901;28;20469;-61
2021/12/24 15:20:28;;;;;;;28.73;17.58;;;15.20;59.40;;;;;;5093759;28;20020;-59
2021/12/24 15:22:54;;;;;;;45.55;28.35;;;15.20;59.30;;;;;;5093720;28;20031;-59
2021/12/24 15:25:20;;;;;;;41.30;23.77;;;15.20;59.50;;;;;;5093944;28;20028;-60
2021/12/24 15:27:45;;;;;;;42.47;27.52;;;15.20;60.00;;;;;;5093990;28;20470;-61
2021/12/24 15:30:12;;;;;;;56.00;33.67;;;15.20;59.90;;;;;;5093640;28;20028;-60
2021/12/24 15:32:39;;;;;;;50.85;30.35;;;15.00;60.40;;;;;;5093591;28;20081;-59
2021/12/24 15:35:06;;;;;;;78.43;44.22;;;15.00;61.00;;;;;;5093441;28;20040;-64
2021/12/24 15:37:32;;;;;;;58.50;35.42;;;15.10;61.00;;;;;;5093808;28;20442;-59
2021/12/24 15:39:57;;;;;;;46.85;29.65;;;15.00;60.90;;;;;;5093415;28;20051;-60
2021/12/24 15:42:27;;;;;;;37.42;22.50;;;15.00;61.30;;;;;;5093488;28;20020;-61
2021/12/24 15:44:52;;;;;;;54.35;32.08;;;15.00;61.40;;;;;;5093601;28;20024;-60
2021/12/24 15:47:18;;;;;;;57.15;34.20;;;15.00;61.80;;;;;;5093150;28;20032;-60
2021/12/24 15:49:44;;;;;;;43.38;27.42;;;14.90;61.90;;;;;;5093571;28;20024;-60
2021/12/24 15:52:10;;;;;;;31.98;20.27;;;14.90;62.10;;;;;;5093421;28;20056;-59
2021/12/24 15:54:36;;;;;;;29.80;17.77;;;14.90;62.20;;;;;;5092979;28;20089;-60
2021/12/24 15:57:03;;;;;;;37.72;22.25;;;14.80;62.80;;;;;;5093438;28;20031;-59
2021/12/24 15:59:33;;;;;;;19.58;12.45;;;14.60;63.90;;;;;;5093399;28;20355;-59
2021/12/24 16:02:03;;;;;;;32.80;19.75;;;14.70;63.80;;;;;;5092899;28;20024;-59
2021/12/24 16:04:29;;;;;;;29.42;16.33;;;14.70;63.70;;;;;;5093204;28;20024;-60
2021/12/24 16:06:55;;;;;;;30.52;17.08;;;14.60;64.20;;;;;;5093172;28;20024;-60
2021/12/24 16:09:21;;;;;;;47.55;25.17;;;14.70;64.00;;;;;;5093185;28;20025;-60
2021/12/24 16:11:48;;;;;;;26.17;16.10;;;14.70;64.40;;;;;;5093207;28;20027;-61
2021/12/24 16:14:15;;;;;;;33.83;18.17;;;14.50;64.80;;;;;;5093102;28;20028;-61
2021/12/24 16:16:44;;;;;;;47.75;26.40;;;14.60;65.10;;;;;;5095565;28;20028;-60
2021/12/24 16:19:11;;;;;;;41.65;23.83;;;14.50;65.50;;;;;;5097394;28;20024;-59
2021/12/24 16:21:37;;;;;;;67.35;34.10;;;14.50;65.40;;;;;;5097520;28;20024;-61
2021/12/24 16:24:05;;;;;;;73.82;35.45;;;14.60;65.40;;;;;;5097167;28;20051;-61
2021/12/24 16:26:31;;;;;;;59.65;28.80;;;14.40;65.90;;;;;;5097083;28;20028;-59
2021/12/24 16:28:57;;;;;;;47.53;23.83;;;14.40;66.20;;;;;;5097589;28;20024;-60
2021/12/24 16:31:23;;;;;;;41.95;22.30;;;14.30;66.40;;;;;;5096858;28;20020;-60
2021/12/24 16:33:49;;;;;;;40.35;23.17;;;14.20;66.70;;;;;;5096724;28;20466;-61
2021/12/24 16:36:14;;;;;;;45.78;22.40;;;14.20;67.60;;;;;;5097129;28;20022;-61
2021/12/24 16:38:40;;;;;;;35.20;18.90;;;14.20;67.20;;;;;;5097128;28;20523;-61
2021/12/24 16:41:06;;;;;;;41.08;22.55;;;14.20;67.30;;;;;;5096832;28;20095;-62
2021/12/24 16:43:32;;;;;;;42.83;22.88;;;14.20;67.90;;;;;;5096802;28;20066;-60
2021/12/24 16:45:58;;;;;;;40.15;20.45;;;14.00;68.20;;;;;;5096607;28;20029;-61
2021/12/24 16:48:25;;;;;;;35.97;19.08;;;14.10;68.40;;;;;;5096662;28;20363;-59
2021/12/24 16:50:51;;;;;;;34.25;18.88;;;13.90;69.50;;;;;;5096704;28;20020;-58
2021/12/24 16:53:17;;;;;;;32.72;19.25;;;13.80;71.20;;;;;;5096657;28;20095;-61
2021/12/24 16:55:44;;;;;;;34.63;19.02;;;13.80;71.10;;;;;;5096387;28;20036;-61
2021/12/24 16:58:11;;;;;;;35.90;20.98;;;13.90;70.00;;;;;;5096687;28;20585;-61
2021/12/24 17:00:40;;;;;;;32.38;18.85;;;14.00;69.50;;;;;;5096601;28;20146;-62
2021/12/24 17:03:07;;;;;;;25.23;14.65;;;14.20;68.50;;;;;;5096420;28;20099;-60
2021/12/24 17:05:33;;;;;;;29.88;19.35;;;14.10;68.80;;;;;;5096547;28;20024;-60
2021/12/24 17:07:59;;;;;;;33.10;20.70;;;14.00;69.10;;;;;;5096399;28;20359;-60
2021/12/24 17:10:25;;;;;;;34.90;21.27;;;13.90;70.20;;;;;;5096195;28;20016;-61
2021/12/24 17:12:51;;;;;;;31.63;19.45;;;13.90;70.10;;;;;;5096245;28;20027;-60
2021/12/24 17:15:19;;;;;;;33.70;20.45;;;14.00;69.90;;;;;;5095986;28;20028;-61
2021/12/24 17:17:45;;;;;;;39.00;23.35;;;14.00;70.00;;;;;;5096124;28;20019;-61
2021/12/24 17:20:13;;;;;;;47.03;27.60;;;14.00;70.00;;;;;;5096395;28;20340;-61
2021/12/24 17:22:41;;;;;;;62.03;35.30;;;14.00;69.90;;;;;;5096081;28;20031;-60
2021/12/24 17:25:11;;;;;;;41.50;24.25;;;13.90;70.20;;;;;;5095960;28;20031;-59
2021/12/24 17:27:38;;;;;;;41.67;24.25;;;13.90;70.60;;;;;;5095749;28;20440;-60
2021/12/24 17:30:06;;;;;;;46.38;26.50;;;13.90;70.70;;;;;;5095755;28;20466;-60
2021/12/24 17:32:32;;;;;;;38.72;22.83;;;13.90;71.00;;;;;;5095835;28;20024;-59
2021/12/24 17:34:58;;;;;;;33.30;19.70;;;13.80;71.00;;;;;;5095714;28;20111;-61
2021/12/24 17:37:24;;;;;;;38.50;20.65;;;13.80;71.80;;;;;;5095812;28;20103;-61
2021/12/24 17:39:49;;;;;;;31.85;17.98;;;13.80;72.00;;;;;;5095722;28;20390;-61
2021/12/24 17:42:15;;;;;;;24.15;13.55;;;13.70;72.20;;;;;;5095605;28;20024;-60
2021/12/24 17:44:41;;;;;;;19.80;11.57;;;13.80;72.00;;;;;;5095433;28;20032;-60
2021/12/24 17:47:08;;;;;;;22.02;12.50;;;13.80;71.70;;;;;;5095857;28;20027;-62
2021/12/24 17:49:38;;;;;;;16.40;9.15;;;13.90;71.90;;;;;;5095764;28;20047;-60
2021/12/24 17:52:08;;;;;;;14.95;9.02;;;13.80;72.10;;;;;;5095213;28;20048;-61
2021/12/24 17:54:37;;;;;;;15.30;9.68;;;13.80;72.60;;;;;;5095011;28;20051;-60
2021/12/24 17:57:03;;;;;;;20.95;12.80;;;13.80;72.70;;;;;;5095260;28;20142;-60
2021/12/24 17:59:29;;;;;;;27.45;14.35;;;13.80;72.60;;;;;;5095138;28;20020;-59
2021/12/24 18:01:55;;;;;;;22.88;12.48;;;13.70;73.20;;;;;;5095399;28;20378;-60
2021/12/24 18:04:20;;;;;;;14.77;8.10;;;13.60;74.20;;;;;;5095426;28;20020;-59
2021/12/24 18:06:46;;;;;;;26.25;12.73;;;13.50;75.50;;;;;;5095202;28;20039;-60
2021/12/24 18:09:13;;;;;;;27.35;14.05;;;13.50;75.30;;;;;;5095010;28;20114;-60
2021/12/24 18:11:43;;;;;;;36.17;21.73;;;13.60;74.80;;;;;;5094946;28;20363;-61
2021/12/24 18:14:09;;;;;;;36.25;21.98;;;13.70;74.70;;;;;;5094793;28;20039;-62
2021/12/24 18:16:35;;;;;;;49.53;28.48;;;13.70;74.70;;;;;;5095362;28;20070;-60
2021/12/24 18:19:01;;;;;;;49.55;28.52;;;13.60;75.10;;;;;;5095110;28;20538;-60
2021/12/24 18:21:29;;;;;;;46.20;27.35;;;13.60;75.40;;;;;;5095148;28;20153;-61
2021/12/24 18:23:55;;;;;;;45.88;27.63;;;13.60;75.30;;;;;;5094813;28;20035;-61
2021/12/24 18:26:21;;;;;;;47.47;27.13;;;13.60;75.80;;;;;;5094772;28;20039;-61
2021/12/24 18:28:47;;;;;;;37.03;22.95;;;13.60;76.00;;;;;;5094551;28;20020;-59
2021/12/24 18:31:13;;;;;;;40.42;24.33;;;13.60;76.10;;;;;;5094784;28;20093;-60
2021/12/24 18:33:38;;;;;;;38.88;23.88;;;13.60;76.40;;;;;;5094476;28;20461;-60
2021/12/24 18:36:07;;;;;;;49.38;31.45;;;13.50;77.00;;;;;;5095093;28;20048;-60
2021/12/24 18:38:34;;;;;;;63.00;39.65;;;13.50;77.10;;;;;;5093794;28;20020;-59
2021/12/24 18:41:00;;;;;;;52.03;31.95;;;13.60;76.90;;;;;;5094626;28;20096;-61
2021/12/24 18:43:28;;;;;;;54.88;35.28;;;13.60;76.60;;;;;;5094690;28;20120;-61
2021/12/24 18:45:56;;;;;;;61.90;38.58;;;13.60;76.90;;;;;;5094458;28;20039;-61
2021/12/24 18:48:22;;;;;;;55.03;33.45;;;13.50;77.10;;;;;;5094362;28;20028;-60
2021/12/24 18:50:51;;;;;;;71.30;41.15;;;13.50;77.40;;;;;;5094429;28;20046;-61
2021/12/24 18:53:19;;;;;;;81.32;47.03;;;13.50;77.50;;;;;;5094371;28;20021;-60
2021/12/24 18:55:44;;;;;;;65.55;37.97;;;13.50;77.80;;;;;;5094190;28;20028;-61
2021/12/24 18:58:10;;;;;;;42.17;22.88;;;13.50;77.60;;;;;;5094256;28;20535;-60
2021/12/24 19:00:38;;;;;;;41.85;25.23;;;13.50;77.40;;;;;;5094232;28;20027;-61
2021/12/24 19:03:06;;;;;;;30.25;18.38;;;13.30;79.00;;;;;;5094062;28;20017;-60
2021/12/24 19:05:33;;;;;;;29.60;17.08;;;13.30;78.70;;;;;;5094268;28;20032;-61
2021/12/24 19:07:59;;;;;;;27.90;16.85;;;13.40;78.50;;;;;;5094371;28;20116;-60
2021/12/24 19:10:26;;;;;;;26.88;16.70;;;13.50;77.80;;;;;;5093772;28;20485;-60